DW6157 Weather Reports


Display with metric or nautical units.
time (UTC)temp
F
wind
direction
speed
MPH
gust
MPH
rain 1hr
in
rain 24hr
in
rain mn
in
humidity
%
barometer
mb
20240530090013 60 96 0.0 7.0 0.00 0.38 0.35 92 1008.5
20240530084522 60 116 0.0 5.0 0.00 0.38 0.35 92 1008.4
20240530083010 59 83 1.0 8.0 0.00 0.38 0.35 92 1008.3
20240530081509 60 131 0.0 4.0 0.00 0.38 0.35 92 1008.2
20240530080009 60 161 0.0 3.0 0.00 0.38 0.35 93 1008.0
20240530074506 59 141 0.0 4.0 0.00 0.38 0.35 93 1007.8
20240530073006 59 77 0.0 4.0 0.00 0.38 0.35 93 1007.8
20240530071505 58 78 1.0 7.0 0.00 0.38 0.35 92 1007.8
20240530070005 59 110 0.0 2.0 0.00 0.38 0.35 93 1007.6
20240530064504 59 65 0.0 2.0 0.00 0.38 0.35 92 1007.6
20240530063003 59 95 0.0 2.0 0.00 0.38 0.35 92 1007.6
20240530061502 59 76 0.0 5.0 0.01 0.38 0.35 93 1007.3
20240530060002 58 85 0.0 3.0 0.01 0.38 0.35 93 1007.4
20240530054611 58 104 0.0 3.0 0.02 0.38 0.35 94 1007.3
20240530053109 58 89 0.0 3.0 0.02 0.38 0.35 94 1007.3
20240530051600 58 64 0.0 5.0 0.01 0.37 0.34 93 1007.0
20240530050110 58 62 1.0 8.0 0.01 0.37 0.34 93 1007.0
20240530044658 58 171 0.0 4.0 0.00 0.36 0.33 93 1007.1
20240530043057 58 95 1.0 8.0 0.01 0.36 0.33 94 1007.0
20240530041557 58 93 0.0 4.0 0.03 0.36 0.33 95 1007.0
20240530040101 58 164 0.0 4.0 0.04 0.36 0.33 95 1007.0
20240530034600 57 74 0.0 6.0 0.06 0.36 0.33 94 1007.0
20240530033055 57 84 1.0 8.0 0.06 0.35 0.32 94 1007.0
20240530031555 58 156 0.0 3.0 0.04 0.33 0.30 94 1006.9
20240530030054 58 162 0.0 4.0 0.03 0.32 0.28 94 1006.9
20240530024554 58 89 0.0 5.0 0.00 0.28 0.26 93 1006.9
20240530023052 58 102 0.0 8.0 0.02 0.28 0.26 93 1007.0
20240530021552 58 115 1.0 5.0 0.04 0.28 0.26 94 1007.0
20240530020050 58 179 0.0 8.0 0.07 0.28 0.26 95 1007.0
20240530014547 57 108 1.0 5.0 0.08 0.28 0.26 95 1007.1
20240530013047 57 99 0.0 3.0 0.08 0.27 0.24 95 1007.2
20240530011545 57 166 0.0 4.0 0.06 0.25 0.22 95 1007.3
20240530010044 57 79 0.0 4.0 0.05 0.22 0.19 95 1007.3
20240530004553 57 67 0.0 1.0 0.05 0.21 0.18 95 1007.5
20240530003042 57 8 0.0 4.0 0.04 0.19 0.16 95 1007.5
20240530001544 57 14 0.0 4.0 0.05 0.18 0.15 95 1007.4
20240530000039 57 32 2.0 5.0 0.08 0.17 0.14 95 1007.5
20240529234546 57 27 0.0 3.0 0.09 0.16 0.13 95 1007.6
20240529233137 57 31 0.0 3.0 0.11 0.15 0.12 94 1007.8
20240529231534 57 66 0.0 3.0 0.09 0.12 0.09 94 1008.0
20240529230032 57 146 0.0 3.0 0.06 0.09 0.06 93 1008.1
20240529224530 57 90 1.0 5.0 0.05 0.07 0.04 92 1008.2
20240529223029 57 25 0.0 0.0 0.02 0.04 0.01 91 1008.1
20240529221528 57 25 0.0 3.0 0.01 0.03 0.00 90 1008.1
20240529220029 57 27 1.0 5.0 0.01 0.03 0.00 91 1008.1
20240529214538 57 28 0.0 1.0 0.00 0.02 0.02 91 1008.1
20240529213024 57 27 0.0 2.0 0.01 0.02 0.02 91 1008.0
20240529211527 57 12 0.0 0.0 0.02 0.02 0.02 91 1008.0
20240529210022 58 20 0.0 0.0 0.02 0.02 0.02 91 1008.2
20240529204617 58 21 0.0 0.0 0.02 0.02 0.02 89 1008.3
20240529203101 59 20 0.0 0.0 0.01 0.01 0.01 88 1008.5
20240529201558 59 20 0.0 0.0 0.00 0.00 0.00 86 1008.5
20240529200058 59 10 0.0 0.0 0.00 0.00 0.00 86 1008.5
20240529194657 59 18 0.0 0.0 0.00 0.00 0.00 86 1008.5
20240529193056 60 18 0.0 0.0 0.00 0.00 0.00 85 1008.5
20240529191556 60 18 0.0 0.0 0.00 0.00 0.00 85 1008.5
20240529190107 60 25 0.0 0.0 0.00 0.00 0.00 83 1008.5
20240529184558 60 26 0.0 0.0 0.00 0.00 0.00 82 1008.5
20240529183103 60 33 0.0 2.0 0.00 0.00 0.00 80 1008.7
20240529181553 61 63 0.0 1.0 0.00 0.00 0.00 78 1008.8
20240529180055 63 210 0.0 0.0 0.00 0.00 0.00 75 1008.8
20240529174549 63 210 0.0 5.0 0.00 0.00 0.00 77 1008.9
20240529173051 64 180 0.0 0.0 0.00 0.00 0.00 75 1008.9
20240529171601 64 200 0.0 0.0 0.00 0.00 0.00 72 1009.0
20240529170049 64 205 0.0 6.0 0.00 0.00 0.00 73 1009.1
20240529164549 63 159 0.0 3.0 0.00 0.00 0.00 71 1009.0
20240529163048 65 92 0.0 2.0 0.00 0.00 0.00 68 1009.0
20240529161548 66 189 0.0 6.0 0.00 0.00 0.00 68 1009.0
20240529160102 67 178 2.0 6.0 0.00 0.00 0.00 63 1009.1
20240529154544 68 182 0.0 8.0 0.00 0.22 0.00 61 1009.0
20240529153052 68 115 0.0 9.0 0.00 0.22 0.00 58 1009.0
20240529151549 68 150 0.0 3.0 0.00 0.22 0.00 59 1009.1
20240529150045 68 192 0.0 4.0 0.00 0.22 0.00 62 1009.2
20240529144540 70 187 0.0 6.0 0.00 0.49 0.00 64 1009.3
20240529143039 69 153 0.0 5.0 0.00 0.49 0.00 61 1009.4
20240529141537 68 191 0.0 5.0 0.00 0.49 0.00 67 1009.6
20240529140043 67 106 0.0 4.0 0.00 0.49 0.00 67 1009.7
20240529134535 68 210 1.0 10.0 0.00 0.54 0.00 66 1009.9
20240529133034 68 172 0.0 10.0 0.00 0.54 0.00 67 1010.0
20240529131533 68 216 1.0 6.0 0.00 0.54 0.00 71 1010.1
20240529130033 67 185 1.0 10.0 0.00 0.54 0.00 71 1010.3
20240529124531 67 119 0.0 12.0 0.00 0.54 0.00 70 1010.5
20240529123031 68 189 2.0 9.0 0.00 0.54 0.00 72 1010.5
20240529121532 68 153 0.0 10.0 0.00 0.54 0.00 69 1010.8
20240529120029 67 162 0.0 14.0 0.00 0.54 0.00 71 1010.9
20240529114530 68 172 3.0 11.0 0.00 0.54 0.00 70 1011.0
20240529113030 68 200 1.0 10.0 0.00 0.54 0.00 72 1011.1
20240529111528 66 157 5.0 13.0 0.00 0.54 0.00 74 1011.1
20240529110028 66 160 0.0 6.0 0.00 0.54 0.00 72 1011.1
20240529104531 67 205 1.0 6.0 0.00 0.54 0.00 74 1011.1
20240529103025 68 225 4.0 10.0 0.00 0.54 0.00 72 1011.2
20240529101521 66 185 0.0 9.0 0.00 0.54 0.00 75 1011.2
20240529100023 65 136 0.0 6.0 0.00 0.54 0.00 77 1011.2
20240529094523 64 150 1.0 8.0 0.00 0.54 0.00 73 1011.3
20240529093026 65 181 2.0 12.0 0.00 0.54 0.00 77 1011.3
20240529091535 65 210 4.0 9.0 0.00 0.54 0.00 74 1011.3